PABR METAR and TAF weather

Enter ICAO airport designator
Station Type Date Time Source
PABR METAR 2021/07/30 22:53 UTC NOAA

PABR 302253Z AUTO 09008KT 10SM BKN006 OVC055 11/09 A2973 RMK AO2 SLP069 T01060089 TSNO


Station Type Date Time Source
PABR Decoded METAR 2021/07/30 22:53 UTC NOAA

POST ROGERS MEMORIAL AIRPORT, AK, United States (PABR) 71-17N 156-46W 10M
Jul 30, 2021 - 06:53 PM EDT / 2021.07.30 2253 UTC
Wind: from the E (090 degrees) at 9 MPH (8 KT):0
Visibility: 10 mile(s):0
Sky conditions: overcast
Temperature: 51.1 F (10.6 C)
Dew Point: 48.0 F (8.9 C)
Relative Humidity: 89%
Pressure (altimeter): 29.73 in. Hg (1006 hPa)
ob: PABR 302253Z AUTO 09008KT 10SM BKN006 OVC055 11/09 A2973 RMK AO2 SLP069 T01060089 TSNO
cycle: 23

Station Type Date Time Source
PABR TAF 2021/07/30 18:30 UTC NOAA

TAF PABR 301728Z 3018/3118 12006KT P6SM VCSH OVC060
FM302200 15007KT P6SM -SHRA SCT007 OVC020
FM310800 10007KT P6SM -SHRA BKN007 OVC020

Example: see airport list